createdAt,value
2018-03-15T00:00:30.129Z,18.50
2018-03-15T00:01:30.274Z,19.50
2018-03-15T00:02:30.087Z,20.20
2018-03-15T00:03:30.180Z,18.90
2018-03-15T00:04:30.022Z,19.60
2018-03-15T00:05:30.097Z,19.40
2018-03-15T00:06:29.972Z,19.00
2018-03-15T00:07:30.109Z,20.00
2018-03-15T00:08:29.945Z,19.60
2018-03-15T00:09:30.029Z,19.40
2018-03-15T00:10:29.865Z,18.90
2018-03-15T00:11:30.036Z,20.10
2018-03-15T00:12:29.808Z,19.70
2018-03-15T00:13:29.948Z,20.00
2018-03-15T00:14:29.756Z,19.90
2018-03-15T00:15:29.860Z,19.20
2018-03-15T00:16:29.702Z,19.30
2018-03-15T00:17:29.872Z,19.80
2018-03-15T00:18:29.649Z,20.40
2018-03-15T00:19:29.789Z,20.40
2018-03-15T00:20:29.589Z,20.00
2018-03-15T00:21:29.696Z,18.90
2018-03-15T00:22:29.538Z,19.90
2018-03-15T00:23:29.711Z,19.70
2018-03-15T00:24:29.484Z,19.50
2018-03-15T00:25:29.669Z,20.00
2018-03-15T00:26:29.426Z,19.10
2018-03-15T00:27:29.535Z,20.00
2018-03-15T00:28:29.375Z,20.20
2018-03-15T00:29:29.548Z,19.40
2018-03-15T00:30:29.319Z,19.70
2018-03-15T00:31:29.459Z,19.60
2018-03-15T00:32:29.264Z,20.30
2018-03-15T00:33:29.372Z,19.40
2018-03-15T00:34:29.209Z,19.80
2018-03-15T00:35:29.383Z,20.10
2018-03-15T00:36:29.153Z,20.70
2018-03-15T00:37:29.194Z,19.90
2018-03-15T00:38:29.103Z,19.60
2018-03-15T00:39:29.109Z,19.50
2018-03-15T00:40:29.046Z,20.20
2018-03-15T00:41:29.123Z,19.20
2018-03-15T00:42:28.996Z,19.10
2018-03-15T00:43:29.033Z,19.80
2018-03-15T00:44:28.938Z,20.20
2018-03-15T00:45:28.944Z,19.50
2018-03-15T00:46:28.882Z,19.40
2018-03-15T00:47:28.959Z,18.90
2018-03-15T00:48:28.828Z,19.80
2018-03-15T00:49:28.871Z,19.40
2018-03-15T00:50:28.775Z,19.10
2018-03-15T00:51:28.782Z,19.20
2018-03-15T00:52:28.718Z,19.70
2018-03-15T00:53:28.795Z,19.50
2018-03-15T00:54:28.663Z,19.30
2018-03-15T00:55:28.712Z,19.40
2018-03-15T00:56:28.610Z,19.60
2018-03-15T00:57:28.720Z,19.70
2018-03-15T00:58:28.555Z,19.00
2018-03-15T00:59:28.632Z,18.50
2018-03-15T01:00:28.500Z,19.40
2018-03-15T01:01:28.542Z,19.50
2018-03-15T01:02:28.448Z,19.20
2018-03-15T01:03:28.557Z,18.50
2018-03-15T01:04:28.391Z,19.10
2018-03-15T01:05:28.470Z,19.10
2018-03-15T01:06:28.335Z,20.10
2018-03-15T01:07:28.380Z,19.40
2018-03-15T01:08:28.282Z,19.60
2018-03-15T01:09:28.393Z,18.70
2018-03-15T01:10:28.229Z,19.60
2018-03-15T01:11:28.304Z,19.10
2018-03-15T01:12:28.171Z,19.60
2018-03-15T01:13:28.216Z,18.60
2018-03-15T01:14:28.117Z,19.00
2018-03-15T01:15:28.232Z,19.50
2018-03-15T01:16:28.067Z,19.00
2018-03-15T01:17:28.143Z,18.60
2018-03-15T01:18:28.013Z,18.80
2018-03-15T01:19:28.053Z,19.20
2018-03-15T01:20:27.955Z,18.70
2018-03-15T01:21:28.068Z,18.60
2018-03-15T01:22:27.899Z,18.50
2018-03-15T01:23:27.981Z,18.60
2018-03-15T01:24:27.844Z,19.10
2018-03-15T01:25:27.881Z,18.80
2018-03-15T01:26:27.792Z,19.00
2018-03-15T01:27:27.907Z,18.60
2018-03-15T01:28:27.735Z,18.30
2018-03-15T01:29:27.817Z,18.60
2018-03-15T01:30:27.681Z,18.70
2018-03-15T01:31:27.729Z,18.50
2018-03-15T01:32:27.629Z,19.30
2018-03-15T01:33:27.744Z,19.60
2018-03-15T01:34:27.575Z,19.00
2018-03-15T01:35:27.654Z,18.90
2018-03-15T01:36:27.515Z,19.00
2018-03-15T01:37:27.567Z,19.10
2018-03-15T01:38:27.502Z,19.10
2018-03-15T01:39:27.579Z,18.70
2018-03-15T01:40:27.411Z,19.50
2018-03-15T01:41:27.490Z,19.00
2018-03-15T01:42:27.350Z,18.50
2018-03-15T01:43:27.403Z,19.30
2018-03-15T01:44:27.296Z,18.40
2018-03-15T01:45:27.415Z,18.80
2018-03-15T01:46:27.243Z,19.30
2018-03-15T01:47:27.329Z,18.70
2018-03-15T01:48:27.189Z,19.20
2018-03-15T01:49:27.239Z,18.20
2018-03-15T01:50:27.129Z,19.30
2018-03-15T01:53:17.358Z,18.30
2018-03-15T01:53:58.728Z,19.00
2018-03-15T01:55:51.884Z,19.30
2018-03-15T01:56:51.680Z,19.30
2018-03-15T01:58:44.664Z,18.80
2018-03-15T01:59:44.717Z,19.40
2018-03-15T02:01:37.796Z,19.20
2018-03-15T02:02:37.590Z,19.00
2018-03-15T02:04:30.749Z,19.00
2018-03-15T02:05:30.545Z,19.20
2018-03-15T02:07:23.706Z,19.60
2018-03-15T02:08:23.497Z,18.40
2018-03-15T02:10:16.662Z,18.70
2018-03-15T02:11:16.455Z,19.30
2018-03-15T02:13:09.618Z,19.30
2018-03-15T02:14:09.411Z,19.30
2018-03-15T02:16:02.490Z,19.70
2018-03-15T02:17:02.365Z,19.60
2018-03-15T02:18:55.531Z,19.00
2018-03-15T02:19:55.324Z,19.20
2018-03-15T02:21:48.487Z,18.30
2018-03-15T02:22:48.276Z,19.20
2018-03-15T02:24:41.443Z,19.20
2018-03-15T02:25:41.228Z,18.80
2018-03-15T02:27:34.392Z,19.60
2018-03-15T02:28:34.184Z,18.00
2018-03-15T02:30:27.354Z,19.40
2018-03-15T02:31:27.152Z,18.80
2018-03-15T02:33:20.304Z,18.90
2018-03-15T02:34:20.097Z,19.40
2018-03-15T02:36:13.269Z,19.20
2018-03-15T02:37:13.053Z,19.20
2018-03-15T02:39:06.218Z,19.50
2018-03-15T02:40:06.008Z,19.30
2018-03-15T02:41:59.173Z,19.10
2018-03-15T02:42:58.964Z,19.50
2018-03-15T02:46:45.503Z,19.00
2018-03-15T02:48:18.667Z,18.80
2018-03-15T02:49:18.464Z,18.60
2018-03-15T02:51:11.623Z,19.00
2018-03-15T02:52:11.414Z,19.30
2018-03-15T02:54:04.475Z,19.00
2018-03-15T02:55:04.378Z,18.20
2018-03-15T02:56:57.438Z,18.40
2018-03-15T02:57:57.324Z,19.10
2018-03-15T02:59:50.392Z,18.80
2018-03-15T03:00:50.280Z,18.50
2018-03-15T03:02:43.341Z,19.00
2018-03-15T03:03:43.236Z,19.10
2018-03-15T03:05:36.197Z,19.10
2018-03-15T03:06:36.093Z,18.40
2018-03-15T03:08:29.051Z,19.60
2018-03-15T03:09:28.948Z,18.50
2018-03-15T03:11:21.901Z,18.00
2018-03-15T03:12:21.798Z,18.30
2018-03-15T03:14:14.754Z,18.90
2018-03-15T03:15:14.655Z,19.00
2018-03-15T03:17:07.608Z,18.60
2018-03-15T03:18:07.505Z,18.80
2018-03-15T03:20:01.484Z,18.50
2018-03-15T03:21:00.364Z,19.20
2018-03-15T03:22:53.307Z,18.60
2018-03-15T03:23:53.210Z,18.70
2018-03-15T03:25:46.165Z,18.40
2018-03-15T03:26:46.060Z,18.30
2018-03-15T03:28:39.016Z,19.10
2018-03-15T03:29:38.916Z,17.30
2018-03-15T03:31:31.873Z,17.60
2018-03-15T03:32:31.768Z,17.50
2018-03-15T03:34:24.824Z,17.70
2018-03-15T03:35:24.725Z,18.10
2018-03-15T03:37:17.676Z,18.00
2018-03-15T03:38:17.575Z,18.40
2018-03-15T03:40:10.636Z,17.90
2018-03-15T03:41:10.527Z,18.50
2018-03-15T03:43:03.487Z,18.50
2018-03-15T03:44:03.388Z,17.80
2018-03-15T03:45:56.442Z,17.30
2018-03-15T03:46:56.333Z,17.80
2018-03-15T03:48:49.397Z,17.80
2018-03-15T03:49:49.295Z,17.70
2018-03-15T03:51:42.352Z,17.50
2018-03-15T03:52:42.246Z,17.80
2018-03-15T03:54:35.415Z,17.70
2018-03-15T03:55:35.203Z,18.00
2018-03-15T03:57:28.265Z,17.20
2018-03-15T03:58:28.243Z,17.90
2018-03-15T04:00:21.320Z,17.30
2018-03-15T04:01:21.113Z,17.90
2018-03-15T04:03:14.277Z,16.20
2018-03-15T04:04:14.077Z,17.30
2018-03-15T04:06:07.237Z,17.30
2018-03-15T04:07:07.028Z,17.20
2018-03-15T04:09:00.188Z,16.60
2018-03-15T04:09:59.979Z,16.90
2018-03-15T04:11:53.141Z,16.60
2018-03-15T04:12:52.933Z,16.80
2018-03-15T04:14:46.102Z,17.20
2018-03-15T04:15:45.940Z,16.80
2018-03-15T04:17:39.052Z,17.20
2018-03-15T04:18:38.844Z,16.40
2018-03-15T04:20:32.030Z,17.90
2018-03-15T04:21:31.800Z,17.30
2018-03-15T04:23:24.970Z,17.20
2018-03-15T04:24:24.755Z,16.80
2018-03-15T04:26:17.922Z,16.80
2018-03-15T04:27:17.709Z,17.50
2018-03-15T04:29:10.876Z,17.40
2018-03-15T04:30:10.665Z,17.40
2018-03-15T04:32:03.832Z,17.40
2018-03-15T04:33:03.620Z,16.40
2018-03-15T04:34:56.786Z,17.40
2018-03-15T04:35:56.575Z,17.20
2018-03-15T04:37:49.743Z,17.00
2018-03-15T04:38:49.530Z,17.80
2018-03-15T04:40:42.694Z,17.60
2018-03-15T04:41:42.487Z,17.70
2018-03-15T04:43:35.651Z,17.30
2018-03-15T04:44:35.444Z,17.70
2018-03-15T04:46:28.609Z,17.20
2018-03-15T04:47:28.397Z,17.60
2018-03-15T04:49:21.560Z,17.30
2018-03-15T04:50:21.352Z,17.50
2018-03-15T04:52:14.515Z,16.70
2018-03-15T04:53:14.309Z,17.00
2018-03-15T04:55:07.470Z,17.10
2018-03-15T04:56:07.263Z,17.90
2018-03-15T04:58:00.426Z,17.80
2018-03-15T04:59:00.217Z,18.10
2018-03-15T05:00:53.382Z,18.20
2018-03-15T05:01:53.173Z,17.30
2018-03-15T05:05:20.476Z,17.80
2018-03-15T05:06:18.502Z,17.60
2018-03-15T05:08:11.659Z,17.30
2018-03-15T05:09:11.440Z,17.20
2018-03-15T05:11:04.513Z,18.20
2018-03-15T05:12:04.405Z,17.00
2018-03-15T05:13:57.467Z,17.70
2018-03-15T05:14:57.365Z,16.90
2018-03-15T05:16:50.421Z,17.70
2018-03-15T05:17:50.319Z,16.90
2018-03-15T05:19:43.378Z,17.60
2018-03-15T05:20:43.273Z,17.00
2018-03-15T05:22:36.229Z,16.60
2018-03-15T05:23:36.134Z,17.70
2018-03-15T05:25:29.083Z,17.20
2018-03-15T05:26:28.981Z,17.10
2018-03-15T05:28:21.937Z,17.30
2018-03-15T05:29:21.836Z,17.50
2018-03-15T05:31:14.930Z,17.20
2018-03-15T05:32:14.685Z,16.70
2018-03-15T05:34:07.644Z,17.80
2018-03-15T05:35:07.540Z,17.00
2018-03-15T05:37:00.495Z,17.20
2018-03-15T05:38:00.393Z,16.90
2018-03-15T05:39:53.344Z,17.20
2018-03-15T05:40:53.252Z,17.00
2018-03-15T05:42:46.197Z,18.10
2018-03-15T05:43:46.101Z,17.60
2018-03-15T05:45:39.152Z,18.50
2018-03-15T05:46:38.950Z,17.60
2018-03-15T05:48:31.904Z,17.00
2018-03-15T05:49:31.802Z,17.90
2018-03-15T05:51:24.762Z,17.80
2018-03-15T05:52:24.657Z,19.40
2018-03-15T05:54:17.611Z,17.90
2018-03-15T05:55:17.510Z,24.10
2018-03-15T05:57:10.566Z,17.80
2018-03-15T05:58:10.458Z,18.50
2018-03-15T06:00:03.420Z,17.30
2018-03-15T06:01:03.322Z,18.40
2018-03-15T06:02:56.328Z,18.40
2018-03-15T06:03:56.271Z,17.30
2018-03-15T06:05:49.329Z,17.30
2018-03-15T06:06:49.226Z,16.70
2018-03-15T06:08:42.287Z,16.50
2018-03-15T06:09:42.178Z,16.30
2018-03-15T06:11:35.342Z,16.90
2018-03-15T06:12:35.133Z,16.70
2018-03-15T06:14:28.195Z,16.30
2018-03-15T06:15:28.089Z,16.80
2018-03-15T06:17:21.254Z,16.80
2018-03-15T06:18:21.046Z,16.90
2018-03-15T06:20:14.103Z,17.20
2018-03-15T06:21:14.001Z,17.20
2018-03-15T06:23:07.166Z,16.10
2018-03-15T06:24:06.980Z,17.00
2018-03-15T06:26:00.121Z,16.00
2018-03-15T06:26:59.917Z,16.30
2018-03-15T06:28:53.118Z,16.00
2018-03-15T06:29:52.866Z,16.30
2018-03-15T06:31:46.033Z,16.20
2018-03-15T06:32:45.825Z,16.40
2018-03-15T06:34:38.983Z,16.00
2018-03-15T06:35:38.775Z,16.20
2018-03-15T06:37:31.939Z,15.80
2018-03-15T06:38:31.731Z,16.40
2018-03-15T06:40:24.901Z,16.40
2018-03-15T06:41:24.687Z,15.30
2018-03-15T06:43:17.849Z,15.80
2018-03-15T06:44:17.640Z,15.90
2018-03-15T06:46:10.814Z,16.30
2018-03-15T06:47:10.599Z,16.20
2018-03-15T06:48:10.698Z,15.40
2018-03-15T06:49:10.543Z,15.70
2018-03-15T06:50:10.711Z,16.20
2018-03-15T06:51:10.489Z,15.80
2018-03-15T06:52:10.657Z,16.20
2018-03-15T06:53:10.428Z,16.50
2018-03-15T06:54:10.534Z,15.60
2018-03-15T06:55:10.375Z,15.80
2018-03-15T06:56:10.545Z,15.70
2018-03-15T06:57:10.319Z,15.60
2018-03-15T06:58:10.457Z,16.20
2018-03-15T06:59:10.264Z,16.60
2018-03-15T07:00:10.373Z,15.60
2018-03-15T07:01:10.258Z,17.50
2018-03-15T07:02:10.376Z,18.60
2018-03-15T07:03:10.154Z,19.30
2018-03-15T07:04:10.293Z,16.70
2018-03-15T07:05:10.097Z,16.70
2018-03-15T07:06:10.199Z,16.70
2018-03-15T07:07:10.050Z,16.20
2018-03-15T07:08:10.218Z,15.80
2018-03-15T07:09:09.985Z,16.30
2018-03-15T07:10:10.132Z,16.90
2018-03-15T07:11:09.932Z,15.80
2018-03-15T07:12:10.035Z,17.00
2018-03-15T07:13:09.877Z,15.50
2018-03-15T07:14:10.064Z,15.70
2018-03-15T07:15:09.820Z,16.80
2018-03-15T07:16:09.971Z,15.80
2018-03-15T07:17:09.772Z,16.30
2018-03-15T07:18:09.883Z,16.10
2018-03-15T07:19:09.715Z,16.60
2018-03-15T07:20:09.894Z,16.30
2018-03-15T07:21:09.658Z,16.90
2018-03-15T07:22:09.804Z,15.90
2018-03-15T07:23:09.605Z,15.70
2018-03-15T07:24:09.714Z,15.50
2018-03-15T07:25:09.548Z,15.70
2018-03-15T07:26:09.730Z,15.70
2018-03-15T07:27:09.487Z,16.10
2018-03-15T07:28:09.537Z,16.00
2018-03-15T07:29:09.434Z,17.00
2018-03-15T07:30:09.452Z,16.00
2018-03-15T07:31:09.378Z,16.20
2018-03-15T07:32:09.467Z,16.40
2018-03-15T07:33:09.324Z,16.30
2018-03-15T07:34:09.392Z,15.90
2018-03-15T07:35:09.269Z,16.40
2018-03-15T07:36:09.288Z,16.50
2018-03-15T07:37:09.216Z,16.30
2018-03-15T07:38:09.307Z,16.30
2018-03-15T07:39:09.173Z,16.00
2018-03-15T07:40:09.212Z,16.60
2018-03-15T07:41:09.113Z,16.30
2018-03-15T07:42:09.125Z,15.40
2018-03-15T07:43:09.054Z,16.00
2018-03-15T07:44:09.138Z,16.40
2018-03-15T07:45:08.997Z,16.20
2018-03-15T07:46:09.052Z,16.40
2018-03-15T07:47:08.948Z,15.80
2018-03-15T07:48:08.962Z,16.40
2018-03-15T07:49:08.891Z,16.50
2018-03-15T07:50:08.973Z,16.20
2018-03-15T07:51:08.834Z,16.10
2018-03-15T07:52:08.892Z,15.90
2018-03-15T07:53:08.784Z,16.30
2018-03-15T07:54:08.807Z,15.70
2018-03-15T07:55:08.727Z,16.90
2018-03-15T07:56:08.807Z,16.00
2018-03-15T07:57:08.677Z,16.10
2018-03-15T07:58:08.725Z,15.50
2018-03-15T07:59:08.620Z,15.50
2018-03-15T08:00:08.738Z,16.90
2018-03-15T08:01:08.568Z,17.20
2018-03-15T08:02:08.649Z,16.80
2018-03-15T08:03:08.524Z,15.90
2018-03-15T08:04:08.561Z,16.00
2018-03-15T08:05:08.458Z,16.40
2018-03-15T08:06:08.578Z,16.00
2018-03-15T08:07:08.406Z,16.60
2018-03-15T08:08:08.487Z,15.70
2018-03-15T08:09:08.352Z,16.20
2018-03-15T08:10:08.397Z,17.60
2018-03-15T08:11:08.298Z,16.30
2018-03-15T08:12:08.411Z,15.70
2018-03-15T08:13:08.244Z,16.20
2018-03-15T08:14:08.324Z,16.10
2018-03-15T08:15:08.191Z,16.10
2018-03-15T08:16:08.238Z,16.40
2018-03-15T08:17:08.138Z,16.40
2018-03-15T08:18:08.259Z,17.10
2018-03-15T08:19:08.077Z,15.70
2018-03-15T08:20:08.163Z,16.60
2018-03-15T08:21:08.039Z,16.30
2018-03-15T08:22:08.074Z,16.40
2018-03-15T08:23:08.003Z,16.00
2018-03-15T08:24:08.090Z,15.60
2018-03-15T08:25:07.946Z,15.50
2018-03-15T08:26:08.001Z,16.40
2018-03-15T08:27:07.874Z,16.00
2018-03-15T08:28:08.017Z,15.70
2018-03-15T08:29:07.825Z,15.90
2018-03-15T08:30:07.924Z,15.60
2018-03-15T08:31:07.773Z,16.10
2018-03-15T08:32:07.835Z,16.10
2018-03-15T08:33:07.718Z,15.70
2018-03-15T08:34:07.850Z,16.20
2018-03-15T08:35:07.666Z,15.60
2018-03-15T08:36:07.763Z,16.10
2018-03-15T08:37:07.622Z,15.30
2018-03-15T08:38:07.674Z,16.30
2018-03-15T08:39:07.562Z,15.90
2018-03-15T08:40:07.628Z,16.30
2018-03-15T08:41:07.511Z,15.80
2018-03-15T08:42:07.597Z,15.90
2018-03-15T08:43:07.457Z,15.90
2018-03-15T08:44:07.508Z,15.60
2018-03-15T08:45:07.407Z,15.40
2018-03-15T08:46:07.524Z,16.00
2018-03-15T08:47:07.352Z,16.10
2018-03-15T08:48:07.436Z,15.90
2018-03-15T08:49:07.305Z,15.90
2018-03-15T08:50:07.449Z,15.20
2018-03-15T08:51:07.256Z,15.20
2018-03-15T08:52:07.359Z,14.90
2018-03-15T08:54:47.540Z,15.50
2018-03-15T08:55:38.842Z,15.50
2018-03-15T08:57:32.004Z,14.80
2018-03-15T08:58:31.790Z,14.90
2018-03-15T09:00:24.788Z,14.80
2018-03-15T09:01:24.934Z,15.40
2018-03-15T09:03:17.907Z,14.60
2018-03-15T09:04:17.708Z,15.10
2018-03-15T09:06:10.786Z,15.00
2018-03-15T09:07:10.660Z,15.30
2018-03-15T09:09:03.639Z,16.80
2018-03-15T09:10:03.552Z,16.60
2018-03-15T09:11:56.438Z,14.70
2018-03-15T09:12:56.392Z,14.80
2018-03-15T09:14:49.342Z,15.10
2018-03-15T09:15:49.247Z,14.10
2018-03-15T09:17:42.185Z,14.20
2018-03-15T09:18:42.132Z,15.10
2018-03-15T09:20:35.036Z,14.40
2018-03-15T09:21:34.949Z,14.10
2018-03-15T09:23:27.856Z,13.90
2018-03-15T09:24:27.878Z,14.20
2018-03-15T09:25:27.811Z,14.00
2018-03-15T09:26:27.881Z,14.40
2018-03-15T09:27:27.748Z,14.50
2018-03-15T09:28:27.728Z,13.80
2018-03-15T09:29:27.704Z,13.70
2018-03-15T09:30:27.702Z,14.40
2018-03-15T09:31:27.650Z,14.30
2018-03-15T09:32:27.714Z,13.40
2018-03-15T09:33:27.599Z,13.20
2018-03-15T09:34:27.682Z,13.20
2018-03-15T09:35:27.547Z,12.90
2018-03-15T09:36:27.636Z,13.10
2018-03-15T09:37:27.519Z,13.20
2018-03-15T09:38:27.547Z,13.90
2018-03-15T09:39:27.456Z,13.00
2018-03-15T09:40:27.460Z,12.90
2018-03-15T09:41:27.418Z,12.10
2018-03-15T09:42:27.471Z,13.50
2018-03-15T09:43:27.365Z,13.10
2018-03-15T09:44:27.380Z,12.50
2018-03-15T09:45:27.320Z,13.20
2018-03-15T09:46:27.392Z,12.70
2018-03-15T09:47:27.276Z,13.70
2018-03-15T09:48:27.305Z,12.80
2018-03-15T09:49:27.230Z,12.90
2018-03-15T09:50:27.312Z,12.70
2018-03-15T09:51:27.183Z,12.20
2018-03-15T09:52:27.223Z,13.20
2018-03-15T09:53:27.139Z,12.20
2018-03-15T09:54:27.132Z,12.20
2018-03-15T09:55:27.096Z,12.20
2018-03-15T09:56:27.146Z,13.00
2018-03-15T09:57:27.052Z,12.50
2018-03-15T09:58:27.057Z,12.00
2018-03-15T09:59:27.011Z,12.00
2018-03-15T10:00:27.069Z,12.40
2018-03-15T10:01:26.962Z,12.00
2018-03-15T10:02:26.980Z,12.40
2018-03-15T10:03:26.920Z,12.20
2018-03-15T10:04:26.991Z,12.70
2018-03-15T10:05:26.879Z,11.70
2018-03-15T10:06:26.903Z,11.80
2018-03-15T10:07:26.833Z,11.70
2018-03-15T10:08:26.915Z,12.20
2018-03-15T10:09:26.791Z,12.70
2018-03-15T10:10:26.825Z,12.60
2018-03-15T10:11:26.744Z,12.20
2018-03-15T10:12:26.836Z,12.10
2018-03-15T10:13:26.701Z,11.80
2018-03-15T10:14:26.747Z,12.00
2018-03-15T10:15:26.659Z,11.80
2018-03-15T10:16:26.676Z,12.40
2018-03-15T10:17:26.615Z,12.20
2018-03-15T10:18:26.670Z,12.00
2018-03-15T10:19:26.571Z,12.10
2018-03-15T10:20:26.582Z,12.10
2018-03-15T10:21:26.522Z,11.90
2018-03-15T10:22:26.591Z,12.00
2018-03-15T10:23:26.476Z,12.10
2018-03-15T10:24:26.502Z,11.50
2018-03-15T10:25:27.257Z,11.70
2018-03-15T10:26:26.516Z,11.60
2018-03-15T10:27:26.427Z,12.10
2018-03-15T10:28:26.428Z,11.90
2018-03-15T10:29:26.337Z,11.70
2018-03-15T10:30:26.340Z,11.40
2018-03-15T10:31:26.290Z,11.80
2018-03-15T10:32:26.352Z,11.60
2018-03-15T10:33:26.243Z,11.60
2018-03-15T10:34:26.256Z,11.60
2018-03-15T10:35:26.201Z,11.30
2018-03-15T10:36:26.269Z,11.20
2018-03-15T10:37:26.152Z,11.00
2018-03-15T10:38:26.176Z,10.90
2018-03-15T10:39:26.107Z,11.70
2018-03-15T10:40:26.206Z,11.20
2018-03-15T10:41:26.063Z,11.00
2018-03-15T10:42:26.107Z,11.30
2018-03-15T10:43:26.018Z,11.10
2018-03-15T10:44:26.016Z,11.50
2018-03-15T10:45:25.961Z,11.50
2018-03-15T10:46:26.026Z,11.00
2018-03-15T10:47:25.921Z,10.70
2018-03-15T10:48:25.935Z,11.00
2018-03-15T10:49:25.896Z,10.90
2018-03-15T10:50:25.948Z,10.90
2018-03-15T10:51:25.826Z,11.40
2018-03-15T10:52:25.864Z,10.90
2018-03-15T10:53:25.784Z,11.40
2018-03-15T10:54:25.769Z,11.00
2018-03-15T10:55:25.735Z,11.10
2018-03-15T10:56:25.783Z,10.80
2018-03-15T10:57:25.687Z,11.00
2018-03-15T10:58:25.691Z,10.50
2018-03-15T10:59:25.641Z,10.60
2018-03-15T11:00:25.703Z,10.30
2018-03-15T11:01:25.599Z,10.90
2018-03-15T11:02:25.614Z,10.50
2018-03-15T11:03:25.545Z,10.20
2018-03-15T11:04:26.551Z,10.60
2018-03-15T11:05:25.507Z,10.50
2018-03-15T11:06:25.534Z,10.70
2018-03-15T11:07:25.457Z,10.90
2018-03-15T11:08:25.445Z,10.60
2018-03-15T11:09:25.434Z,10.50
2018-03-15T11:10:25.453Z,9.90
2018-03-15T11:11:25.364Z,10.20
2018-03-15T11:12:25.369Z,10.50
2018-03-15T11:13:25.317Z,10.50
2018-03-15T11:14:25.386Z,10.90
2018-03-15T11:15:25.268Z,11.50
2018-03-15T11:16:25.289Z,11.30
2018-03-15T11:17:25.226Z,11.10
2018-03-15T11:18:25.322Z,10.70
2018-03-15T11:19:25.180Z,11.10
2018-03-15T11:20:25.213Z,11.30
2018-03-15T11:21:25.132Z,10.70
2018-03-15T11:22:25.121Z,10.50
2018-03-15T11:23:25.087Z,10.20
2018-03-15T11:24:25.135Z,10.10
2018-03-15T11:25:25.044Z,10.40
2018-03-15T11:26:25.047Z,10.20
2018-03-15T11:27:24.994Z,9.70
2018-03-15T11:28:25.058Z,10.10
2018-03-15T11:29:24.948Z,9.80
2018-03-15T11:30:24.968Z,9.50
2018-03-15T11:31:24.902Z,9.80
2018-03-15T11:32:24.982Z,10.00
2018-03-15T11:33:24.852Z,9.50
2018-03-15T11:34:24.884Z,9.00
2018-03-15T11:35:24.809Z,9.60
2018-03-15T11:36:24.801Z,9.90
2018-03-15T11:37:24.767Z,9.90
2018-03-15T11:38:24.816Z,9.60
2018-03-15T11:39:24.720Z,9.20
2018-03-15T11:40:24.727Z,9.40
2018-03-15T11:41:24.676Z,9.70
2018-03-15T11:42:24.738Z,9.70
2018-03-15T11:43:24.629Z,9.80
2018-03-15T11:44:24.652Z,9.70
2018-03-15T11:45:24.582Z,9.80
2018-03-15T11:46:24.671Z,9.60
2018-03-15T11:47:24.539Z,9.40
2018-03-15T11:48:24.571Z,9.60
2018-03-15T11:49:24.491Z,9.60
2018-03-15T11:50:24.587Z,8.70
2018-03-15T11:51:24.447Z,9.80
2018-03-15T11:52:24.497Z,9.10
2018-03-15T11:53:24.400Z,9.30
2018-03-15T11:54:24.405Z,11.20
2018-03-15T11:55:24.360Z,9.90
2018-03-15T11:56:24.417Z,10.50
2018-03-15T11:57:24.309Z,9.20
2018-03-15T11:58:24.327Z,10.20
2018-03-15T11:59:24.265Z,10.40
2018-03-15T12:00:24.329Z,10.50
2018-03-15T12:01:24.221Z,13.20
2018-03-15T12:02:24.246Z,9.50
2018-03-15T12:03:24.176Z,13.50
2018-03-15T12:04:24.258Z,9.30
2018-03-15T12:05:24.130Z,11.30
2018-03-15T12:06:24.169Z,9.60
2018-03-15T12:07:24.079Z,9.70
2018-03-15T12:08:24.081Z,9.60
2018-03-15T12:09:24.038Z,9.30
2018-03-15T12:10:24.092Z,10.80
2018-03-15T12:11:23.996Z,10.20
2018-03-15T12:12:24.001Z,9.30
2018-03-15T12:13:23.950Z,9.50
2018-03-15T12:14:24.014Z,9.20
2018-03-15T12:15:23.909Z,9.00
2018-03-15T12:16:23.932Z,9.30
2018-03-15T12:17:23.860Z,9.80
2018-03-15T12:18:23.940Z,9.70
2018-03-15T12:19:23.815Z,9.80
2018-03-15T12:20:23.846Z,9.30
2018-03-15T12:21:23.770Z,9.40
2018-03-15T12:22:23.859Z,9.30
2018-03-15T12:23:23.729Z,9.70
2018-03-15T12:24:23.763Z,9.00
2018-03-15T12:25:23.682Z,9.50
2018-03-15T12:26:23.679Z,9.90
2018-03-15T12:27:23.638Z,9.80
2018-03-15T12:28:23.718Z,9.30
2018-03-15T12:29:23.593Z,9.80
2018-03-15T12:30:23.630Z,9.20
2018-03-15T12:31:23.548Z,9.60
2018-03-15T12:32:23.647Z,9.50
2018-03-15T12:33:23.500Z,9.30
2018-03-15T12:34:23.556Z,9.30
2018-03-15T12:35:23.474Z,9.30
2018-03-15T12:36:23.570Z,9.40
2018-03-15T12:37:23.416Z,8.90
2018-03-15T12:38:23.393Z,9.40
2018-03-15T12:39:23.457Z,9.60
2018-03-15T12:40:23.353Z,9.00
2018-03-15T12:41:23.369Z,8.80
2018-03-15T12:42:23.307Z,9.30
2018-03-15T12:43:23.291Z,11.60
2018-03-15T12:44:23.260Z,9.50
2018-03-15T12:45:23.289Z,9.10
2018-03-15T12:46:23.212Z,9.70
2018-03-15T12:47:23.304Z,11.40
2018-03-15T12:48:23.183Z,8.90
2018-03-15T12:49:23.207Z,8.60
2018-03-15T12:50:23.133Z,10.50
2018-03-15T12:51:23.222Z,10.40
2018-03-15T12:52:23.087Z,8.60
2018-03-15T12:53:23.133Z,8.80
2018-03-15T12:54:23.044Z,9.70
2018-03-15T12:55:23.044Z,10.70
2018-03-15T12:56:22.992Z,8.90
2018-03-15T12:57:23.119Z,12.00
2018-03-15T12:58:22.956Z,10.80
2018-03-15T12:59:22.966Z,8.20
2018-03-15T13:00:22.916Z,9.10
2018-03-15T13:01:22.984Z,8.40
2018-03-15T13:02:22.862Z,9.30
2018-03-15T13:03:22.889Z,8.40
2018-03-15T13:04:22.822Z,8.40
2018-03-15T13:05:22.901Z,8.80
2018-03-15T13:06:22.773Z,8.30
2018-03-15T13:07:22.820Z,8.70
2018-03-15T13:08:22.732Z,8.50
2018-03-15T13:09:22.721Z,8.80
2018-03-15T13:10:22.684Z,8.10
2018-03-15T13:11:22.736Z,8.50
2018-03-15T13:12:22.643Z,8.50
2018-03-15T13:13:22.643Z,9.50
2018-03-15T13:14:22.599Z,8.80
2018-03-15T13:15:22.657Z,10.80
2018-03-15T13:16:22.547Z,8.50
2018-03-15T13:17:22.568Z,9.60
2018-03-15T13:18:22.512Z,8.80
2018-03-15T13:19:22.581Z,8.60
2018-03-15T13:20:22.462Z,8.40
2018-03-15T13:21:22.488Z,8.70
2018-03-15T13:22:22.417Z,8.10
2018-03-15T13:23:22.503Z,7.80
2018-03-15T13:24:22.368Z,8.20
2018-03-15T13:25:22.411Z,8.30
2018-03-15T13:26:22.330Z,8.20
2018-03-15T13:27:22.328Z,8.10
2018-03-15T13:28:22.285Z,7.70
2018-03-15T13:29:22.335Z,7.60
2018-03-15T13:30:22.240Z,8.30
2018-03-15T13:31:22.263Z,9.70
2018-03-15T13:32:22.194Z,8.10
2018-03-15T13:33:22.257Z,8.10
2018-03-15T13:34:22.207Z,7.80
2018-03-15T13:35:22.157Z,7.80
2018-03-15T13:36:22.112Z,7.70
2018-03-15T13:37:22.177Z,7.60
2018-03-15T13:38:22.055Z,7.30
2018-03-15T13:39:22.096Z,9.40
2018-03-15T13:40:22.017Z,7.50
2018-03-15T13:43:26.740Z,7.80
2018-03-15T13:43:53.656Z,7.90
2018-03-15T13:45:47.546Z,7.70
2018-03-15T13:46:46.432Z,8.40
2018-03-15T13:48:39.369Z,8.10
2018-03-15T13:49:39.305Z,8.90
2018-03-15T13:51:32.219Z,8.00
2018-03-15T13:52:32.134Z,8.40
2018-03-15T13:54:25.071Z,9.40
2018-03-15T13:55:24.983Z,8.30
2018-03-15T14:00:42.586Z,7.90
2018-03-15T14:01:42.498Z,8.00
2018-03-15T14:03:35.438Z,9.20
2018-03-15T14:04:35.345Z,8.70
2018-03-15T14:06:28.292Z,8.00
2018-03-15T14:07:28.197Z,8.20
2018-03-15T14:09:21.160Z,7.90
2018-03-15T14:10:21.044Z,7.40
2018-03-15T14:12:13.997Z,8.60
2018-03-15T14:13:13.906Z,7.60
2018-03-15T14:15:06.833Z,8.00
2018-03-15T14:16:06.753Z,7.90
2018-03-15T14:17:59.637Z,8.50
2018-03-15T14:18:59.681Z,7.40
2018-03-15T14:20:52.538Z,8.70
2018-03-15T14:21:52.459Z,7.80
2018-03-15T14:23:45.388Z,8.40
2018-03-15T14:24:45.306Z,7.80
2018-03-15T14:26:38.704Z,7.40
2018-03-15T14:27:38.153Z,7.60
2018-03-15T14:29:31.193Z,7.50
2018-03-15T14:30:31.110Z,7.30
2018-03-15T14:32:23.997Z,7.80
2018-03-15T14:33:23.860Z,9.60
2018-03-15T14:35:16.812Z,9.80
2018-03-15T14:36:16.715Z,8.20
2018-03-15T14:38:09.646Z,8.80
2018-03-15T14:39:09.555Z,8.10
2018-03-15T14:41:02.444Z,11.70
2018-03-15T14:42:02.505Z,10.40
2018-03-15T14:43:55.391Z,12.20
2018-03-15T14:44:55.285Z,8.80
2018-03-15T14:46:48.262Z,8.10
2018-03-15T14:47:48.315Z,8.40
2018-03-15T14:49:42.310Z,9.30
2018-03-15T14:50:43.221Z,10.90
2018-03-15T14:52:36.100Z,14.60
2018-03-15T14:53:35.065Z,16.10
2018-03-15T14:55:28.128Z,45.60
2018-03-15T14:56:28.128Z,133.10
2018-03-15T14:58:21.092Z,30.20
2018-03-15T14:59:20.981Z,28.40
2018-03-15T15:01:14.130Z,15.30
2018-03-15T15:02:14.957Z,12.70
2018-03-15T15:04:07.188Z,11.00
2018-03-15T15:05:07.092Z,8.20
2018-03-15T15:07:00.152Z,8.10
2018-03-15T15:08:00.048Z,7.60
2018-03-15T15:09:53.142Z,9.20
2018-03-15T15:10:53.001Z,9.20
2018-03-15T15:12:46.114Z,7.90